Time;durP1;ratioP1;P1;durP2;ratioP2;P2;SDS_P1;SDS_P2;PMS_P1;PMS_P2;Temp;Humidity;BMP_temperature;BMP_pressure;BME280_temperature;BME280_humidity;BME280_pressure;Samples;Min_cycle;Max_cycle;Signal;HPM_P1;HPM_P2
2024/01/01 00:07:11;;;;;;;56.53;34.85;;;8.40;9.30;;;;;;20800594;28;20850;-41
2024/01/01 00:17:13;;;;;;;51.42;29.42;;;8.20;12.20;;;;;;20800847;28;20481;-41
2024/01/01 00:27:13;;;;;;;38.00;22.50;;;8.10;11.30;;;;;;20782396;28;20125;-40
2024/01/01 00:37:14;;;;;;;40.33;23.30;;;8.10;9.60;;;;;;20800927;28;20049;-40
2024/01/01 00:47:14;;;;;;;38.00;20.27;;;8.20;8.80;;;;;;20846459;28;20045;-40
2024/01/01 00:57:15;;;;;;;30.00;15.30;;;8.20;6.30;;;;;;20883669;28;20067;-40
2024/01/01 01:07:16;;;;;;;27.77;12.87;;;8.20;7.00;;;;;;20883965;28;20048;-40
2024/01/01 01:17:16;;;;;;;22.05;10.68;;;8.20;6.30;;;;;;20879200;28;20447;-40
2024/01/01 01:27:17;;;;;;;18.50;8.13;;;8.20;8.50;;;;;;20867996;28;20044;-40
2024/01/01 01:37:18;;;;;;;18.30;6.68;;;8.20;6.90;;;;;;20870774;28;20397;-40
2024/01/01 01:47:18;;;;;;;12.20;3.65;;;8.20;7.00;;;;;;20869437;28;20404;-41
2024/01/01 01:57:19;;;;;;;15.83;5.00;;;8.30;3.70;;;;;;20851792;28;20098;-41
2024/01/01 02:07:20;;;;;;;12.75;5.10;;;8.30;6.80;;;;;;20860245;28;20476;-40
2024/01/01 02:17:21;;;;;;;11.07;3.50;;;8.20;10.60;;;;;;20867278;28;20044;-40
2024/01/01 02:27:22;;;;;;;9.88;2.70;;;8.10;22.60;;;;;;20868015;28;20556;-40
2024/01/01 02:37:22;;;;;;;11.88;3.05;;;7.90;38.20;;;;;;20863331;28;20045;-40
2024/01/01 02:47:23;;;;;;;13.48;3.63;;;7.70;71.80;;;;;;20854112;28;20045;-40
2024/01/01 02:57:26;;;;;;;14.55;4.28;;;7.60;93.10;;;;;;20851702;28;20037;-41
2024/01/01 03:07:27;;;;;;;13.77;3.95;;;7.50;99.90;;;;;;20867090;28;20037;-41
2024/01/01 03:17:27;;;;;;;12.90;2.83;;;7.70;99.90;;;;;;20864089;28;20156;-41
2024/01/01 03:27:28;;;;;;;12.77;3.00;;;7.70;99.90;;;;;;20860863;28;20746;-41
2024/01/01 03:37:28;;;;;;;15.10;2.55;;;7.80;99.90;;;;;;20872599;28;20053;-41
2024/01/01 03:47:31;;;;;;;13.15;3.10;;;7.80;99.90;;;;;;20867622;28;20427;-41
2024/01/01 03:57:33;;;;;;;20.13;2.95;;;7.80;99.90;;;;;;20869015;28;20140;-41
2024/01/01 04:07:34;;;;;;;14.77;3.47;;;7.80;99.90;;;;;;20867141;28;20480;-41
2024/01/01 04:17:35;;;;;;;16.20;3.00;;;7.90;99.90;;;;;;20867692;28;20045;-40
2024/01/01 04:27:35;;;;;;;17.42;3.10;;;7.90;99.90;;;;;;20871637;28;20040;-40
2024/01/01 04:37:36;;;;;;;10.40;2.35;;;7.90;99.90;;;;;;20873275;28;20389;-40
2024/01/01 04:47:37;;;;;;;13.57;2.15;;;7.80;99.90;;;;;;20871436;28;20041;-40
2024/01/01 04:57:37;;;;;;;17.45;3.63;;;7.80;99.90;;;;;;20863505;28;20061;-40
2024/01/01 05:07:38;;;;;;;16.65;2.60;;;7.90;99.90;;;;;;20864081;28;20053;-40
2024/01/01 05:17:38;;;;;;;10.15;2.30;;;7.90;99.90;;;;;;20862285;28;20468;-40
2024/01/01 05:27:39;;;;;;;14.02;2.90;;;7.90;99.90;;;;;;20862185;28;20048;-40
2024/01/01 05:37:39;;;;;;;11.88;3.03;;;7.90;99.90;;;;;;20863370;28;20053;-40
2024/01/01 05:47:40;;;;;;;12.67;2.97;;;7.90;99.90;;;;;;20864759;28;20549;-41
2024/01/01 05:57:40;;;;;;;16.42;3.85;;;7.90;99.90;;;;;;20861809;28;20095;-41
2024/01/01 06:07:41;;;;;;;12.07;2.25;;;8.00;99.90;;;;;;20854781;28;20155;-40
2024/01/01 06:17:43;;;;;;;13.07;2.17;;;8.00;99.90;;;;;;20856762;28;20053;-40
2024/01/01 06:27:43;;;;;;;13.15;2.33;;;8.10;99.90;;;;;;20842682;28;20524;-40
2024/01/01 06:37:44;;;;;;;12.88;2.65;;;8.00;99.90;;;;;;20862371;28;20099;-40
2024/01/01 06:47:44;;;;;;;12.90;2.50;;;8.00;99.90;;;;;;20857927;28;20548;-40
2024/01/01 06:57:45;;;;;;;11.07;2.33;;;8.00;99.90;;;;;;20860936;28;20102;-40
2024/01/01 07:07:46;;;;;;;12.48;2.22;;;8.10;99.90;;;;;;20863732;28;20033;-40
2024/01/01 07:17:46;;;;;;;15.00;2.55;;;8.00;99.90;;;;;;20847271;28;20045;-40
2024/01/01 07:27:47;;;;;;;10.95;2.25;;;8.00;99.90;;;;;;20824702;28;20045;-40
2024/01/01 07:37:48;;;;;;;7.68;1.73;;;8.00;99.90;;;;;;20775991;28;20110;-40
2024/01/01 07:47:49;;;;;;;12.63;2.13;;;7.90;99.90;;;;;;20787459;28;20033;-41
2024/01/01 07:57:50;;;;;;;13.13;2.63;;;7.90;99.90;;;;;;20783086;28;20103;-40
2024/01/01 08:07:51;;;;;;;16.10;1.92;;;7.90;99.90;;;;;;20791570;28;20084;-40
2024/01/01 08:17:52;;;;;;;8.02;1.55;;;7.80;99.90;;;;;;20788823;28;20073;-40
2024/01/01 08:27:53;;;;;;;13.38;2.13;;;7.90;99.90;;;;;;20794762;28;20057;-40
2024/01/01 08:37:54;;;;;;;10.77;2.38;;;7.90;99.90;;;;;;20790372;28;20046;-40
2024/01/01 08:47:54;;;;;;;10.15;2.13;;;8.00;99.90;;;;;;20795151;28;20045;-40
2024/01/01 08:57:55;;;;;;;8.82;1.98;;;8.00;99.90;;;;;;20760125;28;20106;-40
2024/01/01 09:07:56;;;;;;;9.82;1.20;;;8.00;99.90;;;;;;20786866;28;20045;-39
2024/01/01 09:17:57;;;;;;;9.60;1.25;;;8.10;80.30;;;;;;20787414;28;20115;-39
2024/01/01 09:27:58;;;;;;;7.28;1.77;;;8.20;35.50;;;;;;20792907;28;20049;-39
2024/01/01 09:37:58;;;;;;;11.40;0.93;;;8.00;49.50;;;;;;20773131;28;20115;-40
2024/01/01 09:47:59;;;;;;;8.13;1.55;;;8.00;47.60;;;;;;20785301;28;20481;-39
2024/01/01 09:57:59;;;;;;;9.27;1.00;;;7.70;76.40;;;;;;20748424;28;20049;-40
2024/01/01 10:08:16;;;;;;;6.57;1.02;;;7.80;82.70;;;;;;20780950;28;20045;-39
2024/01/01 10:18:17;;;;;;;7.38;0.80;;;8.00;62.80;;;;;;20775528;28;20124;-39
2024/01/01 10:28:24;;;;;;;11.30;1.02;;;8.20;42.00;;;;;;20782190;28;20150;-39
2024/01/01 10:38:25;;;;;;;7.50;1.00;;;8.30;49.10;;;;;;20776482;28;20053;-41
2024/01/01 10:48:26;;;;;;;5.95;0.85;;;8.50;15.20;;;;;;20774229;28;20312;-40
2024/01/01 10:59:04;;;;;;;9.70;1.52;;;8.70;10.40;;;;;;20774743;28;20045;-40
2024/01/01 11:09:28;;;;;;;8.68;1.83;;;8.90;5.50;;;;;;20773725;28;20148;-40
2024/01/01 11:19:35;;;;;;;8.15;1.42;;;9.30;5.60;;;;;;20777043;28;20057;-38
2024/01/01 11:29:35;;;;;;;8.77;1.10;;;9.90;1.00;;;;;;20785651;28;20041;-38
2024/01/01 11:39:36;;;;;;;10.55;1.70;;;9.50;1.00;;;;;;20778186;28;20468;-38
2024/01/01 11:49:36;;;;;;;9.13;1.17;;;9.30;1.00;;;;;;20796708;28;20049;-38
2024/01/01 11:59:37;;;;;;;10.40;1.70;;;9.60;1.00;;;;;;20800307;28;20401;-39
2024/01/01 12:09:38;;;;;;;9.45;1.60;;;9.30;1.00;;;;;;20804326;28;20504;-38
2024/01/01 12:19:39;;;;;;;9.93;1.70;;;9.00;1.00;;;;;;20798449;28;20041;-38
2024/01/01 12:29:49;;;;;;;12.27;1.95;;;9.00;1.00;;;;;;20779580;28;20400;-38
2024/01/01 12:39:50;;;;;;;12.13;1.75;;;9.50;1.00;;;;;;20785208;28;20042;-38
2024/01/01 12:49:51;;;;;;;13.23;1.80;;;10.20;1.00;;;;;;20744023;28;21897;-39
2024/01/01 12:59:51;;;;;;;12.70;1.67;;;10.40;1.00;;;;;;20765665;28;20057;-38
2024/01/01 13:09:52;;;;;;;16.20;4.45;;;10.50;1.00;;;;;;20787315;28;20053;-38
2024/01/01 13:19:52;;;;;;;16.13;5.38;;;10.20;1.00;;;;;;20781265;28;20057;-41
2024/01/01 13:29:53;;;;;;;20.45;5.20;;;10.10;1.00;;;;;;20773704;28;20107;-38
2024/01/01 13:39:53;;;;;;;17.55;5.13;;;10.00;1.00;;;;;;20771719;28;20056;-40
2024/01/01 13:49:54;;;;;;;13.18;3.53;;;9.90;1.00;;;;;;20781185;28;20069;-40
2024/01/01 13:59:55;;;;;;;14.90;3.03;;;9.70;1.00;;;;;;20772998;28;20049;-39
2024/01/01 14:09:55;;;;;;;15.15;3.63;;;9.50;1.00;;;;;;20771156;28;20033;-39
2024/01/01 14:19:56;;;;;;;15.45;2.80;;;9.30;1.00;;;;;;20775226;28;20057;-39
2024/01/01 14:29:56;;;;;;;15.37;3.10;;;9.50;1.00;;;;;;20776224;28;20041;-39
2024/01/01 14:39:57;;;;;;;11.73;3.25;;;9.50;1.00;;;;;;20767263;28;20045;-39
2024/01/01 14:49:58;;;;;;;16.08;5.10;;;9.30;1.00;;;;;;20766032;28;20382;-39
2024/01/01 14:59:58;;;;;;;16.73;4.10;;;9.10;1.00;;;;;;20765325;28;20107;-40
2024/01/01 15:09:59;;;;;;;19.27;4.53;;;8.90;1.00;;;;;;20767211;28;20480;-39
2024/01/01 15:19:59;;;;;;;13.50;4.00;;;8.80;1.00;;;;;;20770592;28;20194;-39
2024/01/01 15:30:00;;;;;;;15.35;3.05;;;8.70;1.00;;;;;;20772730;28;20042;-40
2024/01/01 15:40:00;;;;;;;15.95;2.83;;;8.60;1.00;;;;;;20768154;28;20636;-39
2024/01/01 15:50:01;;;;;;;13.57;2.30;;;8.50;1.00;;;;;;20767078;28;20163;-40
2024/01/01 16:00:03;;;;;;;24.70;5.72;;;8.40;1.00;;;;;;20763458;28;20452;-40
2024/01/01 16:10:04;;;;;;;20.10;3.38;;;8.30;1.00;;;;;;20777027;28;20333;-39
2024/01/01 16:20:08;;;;;;;22.55;6.63;;;8.20;1.00;;;;;;20776776;28;20049;-39
2024/01/01 16:30:10;;;;;;;14.82;2.95;;;8.20;1.00;;;;;;20772471;28;20497;-39
2024/01/01 16:40:11;;;;;;;14.88;2.90;;;8.10;1.00;;;;;;20777398;28;20519;-39
2024/01/01 16:50:11;;;;;;;18.63;4.07;;;8.10;1.00;;;;;;20786420;28;20041;-39
2024/01/01 17:00:12;;;;;;;16.83;3.85;;;7.80;1.00;;;;;;20792953;28;20196;-39
2024/01/01 17:10:13;;;;;;;18.10;3.47;;;7.70;1.00;;;;;;20771136;28;20098;-39
2024/01/01 17:20:13;;;;;;;15.77;4.18;;;7.60;1.00;;;;;;20774159;28;20043;-39
2024/01/01 17:30:14;;;;;;;25.60;4.78;;;7.70;3.20;;;;;;20778486;28;20073;-39
2024/01/01 17:40:15;;;;;;;20.15;5.60;;;7.70;7.30;;;;;;20782661;28;20049;-39
2024/01/01 17:50:15;;;;;;;20.83;5.97;;;7.60;17.20;;;;;;20777542;28;20037;-40
2024/01/01 18:00:16;;;;;;;22.70;4.47;;;7.60;30.60;;;;;;20772357;28;20514;-39
2024/01/01 18:10:18;;;;;;;18.63;3.72;;;7.60;41.80;;;;;;20783431;28;20041;-40
2024/01/01 18:20:18;;;;;;;13.85;5.57;;;7.60;41.30;;;;;;20777924;28;20517;-39
2024/01/01 18:30:19;;;;;;;14.52;3.80;;;7.70;44.10;;;;;;20773475;28;20042;-39
2024/01/01 18:40:20;;;;;;;10.47;3.13;;;7.50;52.80;;;;;;20773003;28;20148;-39
2024/01/01 18:50:21;;;;;;;17.48;4.18;;;7.60;48.80;;;;;;20771900;28;20135;-39
2024/01/01 19:00:21;;;;;;;13.73;4.05;;;7.50;51.10;;;;;;20766632;28;20045;-40
2024/01/01 19:10:26;;;;;;;19.27;5.25;;;7.50;45.30;;;;;;20769796;28;20078;-39
2024/01/01 19:20:27;;;;;;;15.45;4.28;;;7.50;34.80;;;;;;20775890;28;20049;-39
2024/01/01 19:30:27;;;;;;;11.67;3.17;;;7.50;29.20;;;;;;20782164;28;20033;-39
2024/01/01 19:40:28;;;;;;;8.35;2.15;;;7.60;16.30;;;;;;20775423;28;21018;-40
2024/01/01 19:50:30;;;;;;;8.48;2.55;;;7.50;13.10;;;;;;20784557;28;20164;-40
2024/01/01 20:00:30;;;;;;;8.05;2.50;;;7.50;11.50;;;;;;20782151;28;20053;-39
2024/01/01 20:10:31;;;;;;;7.30;3.63;;;7.50;9.50;;;;;;20780593;28;20044;-40
2024/01/01 20:20:31;;;;;;;7.55;3.65;;;7.50;7.40;;;;;;20783740;28;21015;-40
2024/01/01 20:30:32;;;;;;;8.77;3.20;;;7.70;5.70;;;;;;20782994;28;20505;-40
2024/01/01 20:40:32;;;;;;;6.47;2.10;;;7.70;1.00;;;;;;20780494;28;20084;-40
2024/01/01 20:50:33;;;;;;;6.47;1.85;;;7.70;1.00;;;;;;20782291;28;20406;-40
2024/01/01 21:00:34;;;;;;;5.15;1.80;;;7.70;1.00;;;;;;20781527;28;20371;-39
2024/01/01 21:10:35;;;;;;;6.32;2.10;;;7.80;1.00;;;;;;20792128;28;20223;-39
2024/01/01 21:20:36;;;;;;;8.10;1.73;;;7.80;1.00;;;;;;20788310;28;20049;-40
2024/01/01 21:30:37;;;;;;;8.70;3.05;;;7.90;1.00;;;;;;20791152;28;20486;-39
2024/01/01 21:40:37;;;;;;;5.78;1.58;;;7.90;4.60;;;;;;20863598;28;20053;-39
2024/01/01 21:50:38;;;;;;;11.07;2.40;;;7.90;4.90;;;;;;20876035;28;20080;-39
2024/01/01 22:00:38;;;;;;;5.30;1.70;;;7.90;10.10;;;;;;20877998;28;20044;-40
2024/01/01 22:10:39;;;;;;;16.77;2.80;;;7.80;17.00;;;;;;20878506;28;20048;-40
2024/01/01 22:20:39;;;;;;;9.55;1.95;;;8.00;24.30;;;;;;20879779;28;20045;-39
2024/01/01 22:30:40;;;;;;;7.93;1.90;;;7.90;28.00;;;;;;20874546;28;20396;-39
2024/01/01 22:40:41;;;;;;;15.02;2.83;;;7.90;37.90;;;;;;20870261;28;20049;-39
2024/01/01 22:50:42;;;;;;;10.90;2.20;;;7.90;52.10;;;;;;20868474;28;20383;-39
2024/01/01 23:00:42;;;;;;;11.77;2.50;;;7.70;73.50;;;;;;20863715;28;20594;-39
2024/01/01 23:10:43;;;;;;;11.20;2.33;;;7.70;91.50;;;;;;20865415;28;20522;-39
2024/01/01 23:20:44;;;;;;;8.93;2.30;;;7.70;97.40;;;;;;20882972;28;20049;-39
2024/01/01 23:30:45;;;;;;;12.65;2.65;;;7.60;99.90;;;;;;20878186;28;20056;-39
2024/01/01 23:40:45;;;;;;;12.45;2.78;;;7.60;99.90;;;;;;20862539;28;20057;-39
2024/01/01 23:50:47;;;;;;;13.38;2.65;;;7.60;99.90;;;;;;20797895;28;20041;-40
